sensor_id;sensor_type;location;lat;lon;timestamp;temperature;humidity
7654;DHT22;3869;48.406;10.774;2023-03-23T00:00:53;8.60;99.90
7654;DHT22;3869;48.406;10.774;2023-03-23T00:03:20;8.60;99.90
7654;DHT22;3869;48.406;10.774;2023-03-23T00:05:50;8.70;99.90
7654;DHT22;3869;48.406;10.774;2023-03-23T00:08:18;8.60;99.90
7654;DHT22;3869;48.406;10.774;2023-03-23T00:10:48;8.70;99.90
7654;DHT22;3869;48.406;10.774;2023-03-23T00:13:18;8.60;99.90
7654;DHT22;3869;48.406;10.774;2023-03-23T00:15:46;8.50;99.90
7654;DHT22;3869;48.406;10.774;2023-03-23T00:18:15;8.60;99.90
7654;DHT22;3869;48.406;10.774;2023-03-23T00:20:49;8.60;99.90
7654;DHT22;3869;48.406;10.774;2023-03-23T00:23:16;8.60;99.90
7654;DHT22;3869;48.406;10.774;2023-03-23T00:25:49;8.70;99.90
7654;DHT22;3869;48.406;10.774;2023-03-23T00:28:19;8.70;99.90
7654;DHT22;3869;48.406;10.774;2023-03-23T00:30:54;8.70;99.90
7654;DHT22;3869;48.406;10.774;2023-03-23T00:33:22;8.70;99.90
7654;DHT22;3869;48.406;10.774;2023-03-23T00:35:50;8.80;99.90
7654;DHT22;3869;48.406;10.774;2023-03-23T00:38:18;8.80;99.90
7654;DHT22;3869;48.406;10.774;2023-03-23T00:40:45;8.80;99.90
7654;DHT22;3869;48.406;10.774;2023-03-23T00:43:13;8.80;99.90
7654;DHT22;3869;48.406;10.774;2023-03-23T00:45:41;8.80;99.90
7654;DHT22;3869;48.406;10.774;2023-03-23T00:48:07;8.90;99.90
7654;DHT22;3869;48.406;10.774;2023-03-23T00:50:34;8.80;99.90
7654;DHT22;3869;48.406;10.774;2023-03-23T00:53:03;8.80;99.90
7654;DHT22;3869;48.406;10.774;2023-03-23T00:55:30;8.80;99.90
7654;DHT22;3869;48.406;10.774;2023-03-23T00:57:57;8.80;99.90
7654;DHT22;3869;48.406;10.774;2023-03-23T01:00:23;8.80;99.90
7654;DHT22;3869;48.406;10.774;2023-03-23T01:02:51;8.80;99.90
7654;DHT22;3869;48.406;10.774;2023-03-23T01:05:19;8.90;99.90
7654;DHT22;3869;48.406;10.774;2023-03-23T01:07:46;8.80;99.90
7654;DHT22;3869;48.406;10.774;2023-03-23T01:10:15;8.80;99.90
7654;DHT22;3869;48.406;10.774;2023-03-23T01:12:44;8.80;99.90
7654;DHT22;3869;48.406;10.774;2023-03-23T01:15:15;8.80;99.90
7654;DHT22;3869;48.406;10.774;2023-03-23T01:17:43;8.80;99.90
7654;DHT22;3869;48.406;10.774;2023-03-23T01:20:10;8.80;99.90
7654;DHT22;3869;48.406;10.774;2023-03-23T01:22:38;8.90;99.90
7654;DHT22;3869;48.406;10.774;2023-03-23T01:25:06;8.80;99.90
7654;DHT22;3869;48.406;10.774;2023-03-23T01:27:34;8.80;99.90
7654;DHT22;3869;48.406;10.774;2023-03-23T01:30:02;8.80;99.90
7654;DHT22;3869;48.406;10.774;2023-03-23T01:32:29;8.80;99.90
7654;DHT22;3869;48.406;10.774;2023-03-23T01:34:56;8.80;99.90
7654;DHT22;3869;48.406;10.774;2023-03-23T01:37:23;8.80;99.90
7654;DHT22;3869;48.406;10.774;2023-03-23T01:39:52;8.90;99.90
7654;DHT22;3869;48.406;10.774;2023-03-23T01:42:22;8.90;99.90
7654;DHT22;3869;48.406;10.774;2023-03-23T01:45:25;8.90;99.90
7654;DHT22;3869;48.406;10.774;2023-03-23T01:47:57;8.90;99.90
7654;DHT22;3869;48.406;10.774;2023-03-23T01:50:26;8.90;99.90
7654;DHT22;3869;48.406;10.774;2023-03-23T01:52:56;8.90;99.90
7654;DHT22;3869;48.406;10.774;2023-03-23T01:55:25;8.90;99.90
7654;DHT22;3869;48.406;10.774;2023-03-23T01:57:54;8.90;99.90
7654;DHT22;3869;48.406;10.774;2023-03-23T02:00:21;8.90;99.90
7654;DHT22;3869;48.406;10.774;2023-03-23T02:02:51;8.90;99.90
7654;DHT22;3869;48.406;10.774;2023-03-23T02:05:23;8.80;99.90
7654;DHT22;3869;48.406;10.774;2023-03-23T02:07:51;8.80;99.90
7654;DHT22;3869;48.406;10.774;2023-03-23T02:10:19;8.80;99.90
7654;DHT22;3869;48.406;10.774;2023-03-23T02:12:45;8.90;99.90
7654;DHT22;3869;48.406;10.774;2023-03-23T02:15:12;8.90;99.90
7654;DHT22;3869;48.406;10.774;2023-03-23T02:17:44;9.00;99.90
7654;DHT22;3869;48.406;10.774;2023-03-23T02:20:33;9.00;99.90
7654;DHT22;3869;48.406;10.774;2023-03-23T02:23:28;9.00;99.90
7654;DHT22;3869;48.406;10.774;2023-03-23T02:26:11;9.00;99.90
7654;DHT22;3869;48.406;10.774;2023-03-23T02:29:07;9.10;99.90
7654;DHT22;3869;48.406;10.774;2023-03-23T02:31:53;9.00;99.90
7654;DHT22;3869;48.406;10.774;2023-03-23T02:34:26;9.10;99.90
7654;DHT22;3869;48.406;10.774;2023-03-23T02:36:58;9.00;99.90
7654;DHT22;3869;48.406;10.774;2023-03-23T02:39:30;9.00;99.90
7654;DHT22;3869;48.406;10.774;2023-03-23T02:42:05;9.00;99.90
7654;DHT22;3869;48.406;10.774;2023-03-23T02:44:34;9.10;99.90
7654;DHT22;3869;48.406;10.774;2023-03-23T02:47:04;9.10;99.90
7654;DHT22;3869;48.406;10.774;2023-03-23T02:49:36;9.10;99.90
7654;DHT22;3869;48.406;10.774;2023-03-23T02:52:06;9.10;99.90
7654;DHT22;3869;48.406;10.774;2023-03-23T02:54:34;9.20;99.90
7654;DHT22;3869;48.406;10.774;2023-03-23T02:57:02;9.20;99.90
7654;DHT22;3869;48.406;10.774;2023-03-23T02:59:29;9.20;99.90
7654;DHT22;3869;48.406;10.774;2023-03-23T03:02:06;9.20;99.90
7654;DHT22;3869;48.406;10.774;2023-03-23T03:04:36;9.20;99.90
7654;DHT22;3869;48.406;10.774;2023-03-23T03:07:32;9.20;99.90
7654;DHT22;3869;48.406;10.774;2023-03-23T03:10:06;9.20;99.90
7654;DHT22;3869;48.406;10.774;2023-03-23T03:12:43;9.20;99.90
7654;DHT22;3869;48.406;10.774;2023-03-23T03:15:21;9.20;99.90
7654;DHT22;3869;48.406;10.774;2023-03-23T03:17:55;9.20;99.90
7654;DHT22;3869;48.406;10.774;2023-03-23T03:20:27;9.30;99.90
7654;DHT22;3869;48.406;10.774;2023-03-23T03:22:55;9.30;99.90
7654;DHT22;3869;48.406;10.774;2023-03-23T03:25:23;9.30;99.90
7654;DHT22;3869;48.406;10.774;2023-03-23T03:27:53;9.30;99.90
7654;DHT22;3869;48.406;10.774;2023-03-23T03:30:24;9.30;99.90
7654;DHT22;3869;48.406;10.774;2023-03-23T03:32:53;9.30;99.90
7654;DHT22;3869;48.406;10.774;2023-03-23T03:35:21;9.40;99.90
7654;DHT22;3869;48.406;10.774;2023-03-23T03:37:50;9.40;99.90
7654;DHT22;3869;48.406;10.774;2023-03-23T03:40:20;9.30;99.90
7654;DHT22;3869;48.406;10.774;2023-03-23T03:42:48;9.30;99.90
7654;DHT22;3869;48.406;10.774;2023-03-23T03:45:18;9.30;99.90
7654;DHT22;3869;48.406;10.774;2023-03-23T03:47:45;9.30;99.90
7654;DHT22;3869;48.406;10.774;2023-03-23T03:50:13;9.40;99.90
7654;DHT22;3869;48.406;10.774;2023-03-23T03:52:40;9.30;99.90
7654;DHT22;3869;48.406;10.774;2023-03-23T03:55:09;9.40;99.90
7654;DHT22;3869;48.406;10.774;2023-03-23T03:57:37;9.40;99.90
7654;DHT22;3869;48.406;10.774;2023-03-23T04:00:07;9.40;99.90
7654;DHT22;3869;48.406;10.774;2023-03-23T04:02:42;9.40;99.90
7654;DHT22;3869;48.406;10.774;2023-03-23T04:05:09;9.40;99.90
7654;DHT22;3869;48.406;10.774;2023-03-23T04:07:37;9.30;99.90
7654;DHT22;3869;48.406;10.774;2023-03-23T04:10:06;9.30;99.90
7654;DHT22;3869;48.406;10.774;2023-03-23T04:12:35;9.30;99.90
7654;DHT22;3869;48.406;10.774;2023-03-23T04:15:03;9.30;99.90
7654;DHT22;3869;48.406;10.774;2023-03-23T04:17:30;9.40;99.90
7654;DHT22;3869;48.406;10.774;2023-03-23T04:19:57;9.50;99.90
7654;DHT22;3869;48.406;10.774;2023-03-23T04:22:25;9.50;99.90
7654;DHT22;3869;48.406;10.774;2023-03-23T04:24:56;9.60;99.90
7654;DHT22;3869;48.406;10.774;2023-03-23T04:27:24;9.70;99.90
7654;DHT22;3869;48.406;10.774;2023-03-23T04:29:55;9.80;99.90
7654;DHT22;3869;48.406;10.774;2023-03-23T04:32:24;9.90;99.90
7654;DHT22;3869;48.406;10.774;2023-03-23T04:34:55;10.00;99.90
7654;DHT22;3869;48.406;10.774;2023-03-23T04:37:23;10.10;99.90
7654;DHT22;3869;48.406;10.774;2023-03-23T04:39:54;10.10;99.90
7654;DHT22;3869;48.406;10.774;2023-03-23T04:42:26;10.20;99.90
7654;DHT22;3869;48.406;10.774;2023-03-23T04:44:55;10.30;99.90
7654;DHT22;3869;48.406;10.774;2023-03-23T04:47:22;10.40;99.90
7654;DHT22;3869;48.406;10.774;2023-03-23T04:49:49;10.50;99.90
7654;DHT22;3869;48.406;10.774;2023-03-23T04:52:17;10.60;99.90
7654;DHT22;3869;48.406;10.774;2023-03-23T04:54:46;10.70;99.90
7654;DHT22;3869;48.406;10.774;2023-03-23T04:57:13;10.70;99.90
7654;DHT22;3869;48.406;10.774;2023-03-23T04:59:41;10.80;99.90
7654;DHT22;3869;48.406;10.774;2023-03-23T05:02:10;10.80;99.90
7654;DHT22;3869;48.406;10.774;2023-03-23T05:04:38;10.90;99.90
7654;DHT22;3869;48.406;10.774;2023-03-23T05:07:06;11.00;99.90
7654;DHT22;3869;48.406;10.774;2023-03-23T05:09:34;11.00;99.90
7654;DHT22;3869;48.406;10.774;2023-03-23T05:12:04;11.10;99.90
7654;DHT22;3869;48.406;10.774;2023-03-23T05:14:31;11.10;99.90
7654;DHT22;3869;48.406;10.774;2023-03-23T05:16:58;11.10;99.90
7654;DHT22;3869;48.406;10.774;2023-03-23T05:19:27;11.20;99.90
7654;DHT22;3869;48.406;10.774;2023-03-23T05:21:56;11.20;99.90
7654;DHT22;3869;48.406;10.774;2023-03-23T05:24:28;11.20;99.90
7654;DHT22;3869;48.406;10.774;2023-03-23T05:26:57;11.20;99.90
7654;DHT22;3869;48.406;10.774;2023-03-23T05:29:23;11.30;99.90
7654;DHT22;3869;48.406;10.774;2023-03-23T05:31:51;11.30;99.90
7654;DHT22;3869;48.406;10.774;2023-03-23T05:34:21;11.30;99.90
7654;DHT22;3869;48.406;10.774;2023-03-23T05:36:49;11.30;99.90
7654;DHT22;3869;48.406;10.774;2023-03-23T05:39:18;11.40;99.90
7654;DHT22;3869;48.406;10.774;2023-03-23T05:41:45;11.40;99.90
7654;DHT22;3869;48.406;10.774;2023-03-23T05:44:12;11.40;99.90
7654;DHT22;3869;48.406;10.774;2023-03-23T05:46:40;11.40;99.90
7654;DHT22;3869;48.406;10.774;2023-03-23T05:49:07;11.50;99.90
7654;DHT22;3869;48.406;10.774;2023-03-23T05:51:34;11.50;99.90
7654;DHT22;3869;48.406;10.774;2023-03-23T05:54:03;11.50;99.90
7654;DHT22;3869;48.406;10.774;2023-03-23T05:56:30;11.60;99.90
7654;DHT22;3869;48.406;10.774;2023-03-23T05:58:57;11.60;99.90
7654;DHT22;3869;48.406;10.774;2023-03-23T06:01:24;11.60;99.90
7654;DHT22;3869;48.406;10.774;2023-03-23T06:03:51;11.70;99.90
7654;DHT22;3869;48.406;10.774;2023-03-23T06:06:19;11.70;99.90
7654;DHT22;3869;48.406;10.774;2023-03-23T06:08:46;11.80;99.90
7654;DHT22;3869;48.406;10.774;2023-03-23T06:11:17;11.80;99.90
7654;DHT22;3869;48.406;10.774;2023-03-23T06:13:44;11.80;99.90
7654;DHT22;3869;48.406;10.774;2023-03-23T06:16:11;11.90;99.90
7654;DHT22;3869;48.406;10.774;2023-03-23T06:18:38;11.90;99.90
7654;DHT22;3869;48.406;10.774;2023-03-23T06:21:06;12.00;99.90
7654;DHT22;3869;48.406;10.774;2023-03-23T06:23:34;12.00;99.90
7654;DHT22;3869;48.406;10.774;2023-03-23T06:26:02;12.00;99.90
7654;DHT22;3869;48.406;10.774;2023-03-23T06:28:32;12.10;99.90
7654;DHT22;3869;48.406;10.774;2023-03-23T06:30:59;12.10;99.90
7654;DHT22;3869;48.406;10.774;2023-03-23T06:33:27;12.10;99.90
7654;DHT22;3869;48.406;10.774;2023-03-23T06:35:54;12.10;99.90
7654;DHT22;3869;48.406;10.774;2023-03-23T06:38:21;12.20;99.90
7654;DHT22;3869;48.406;10.774;2023-03-23T06:40:48;12.20;99.90
7654;DHT22;3869;48.406;10.774;2023-03-23T06:43:17;12.20;99.90
7654;DHT22;3869;48.406;10.774;2023-03-23T06:45:46;12.30;99.90
7654;DHT22;3869;48.406;10.774;2023-03-23T06:48:13;12.30;99.90
7654;DHT22;3869;48.406;10.774;2023-03-23T06:50:42;12.40;99.90
7654;DHT22;3869;48.406;10.774;2023-03-23T06:53:10;12.40;99.90
7654;DHT22;3869;48.406;10.774;2023-03-23T06:55:37;12.40;99.90
7654;DHT22;3869;48.406;10.774;2023-03-23T06:58:04;12.50;99.90
7654;DHT22;3869;48.406;10.774;2023-03-23T07:00:32;12.50;99.90
7654;DHT22;3869;48.406;10.774;2023-03-23T07:03:00;12.60;99.90
7654;DHT22;3869;48.406;10.774;2023-03-23T07:05:28;12.70;99.90
7654;DHT22;3869;48.406;10.774;2023-03-23T07:07:55;12.70;99.90
7654;DHT22;3869;48.406;10.774;2023-03-23T07:10:22;12.70;99.90
7654;DHT22;3869;48.406;10.774;2023-03-23T07:12:49;12.80;99.90
7654;DHT22;3869;48.406;10.774;2023-03-23T07:15:16;12.80;99.90
7654;DHT22;3869;48.406;10.774;2023-03-23T07:17:43;12.90;99.90
7654;DHT22;3869;48.406;10.774;2023-03-23T07:20:12;13.00;99.90
7654;DHT22;3869;48.406;10.774;2023-03-23T07:22:40;13.10;99.90
7654;DHT22;3869;48.406;10.774;2023-03-23T07:25:07;13.10;99.90
7654;DHT22;3869;48.406;10.774;2023-03-23T07:27:34;13.20;99.90
7654;DHT22;3869;48.406;10.774;2023-03-23T07:30:02;13.30;99.90
7654;DHT22;3869;48.406;10.774;2023-03-23T07:32:29;13.40;99.90
7654;DHT22;3869;48.406;10.774;2023-03-23T07:34:56;13.50;99.90
7654;DHT22;3869;48.406;10.774;2023-03-23T07:37:24;13.60;99.90
7654;DHT22;3869;48.406;10.774;2023-03-23T07:39:51;13.60;99.90
7654;DHT22;3869;48.406;10.774;2023-03-23T07:42:18;13.80;99.90
7654;DHT22;3869;48.406;10.774;2023-03-23T07:44:45;13.80;99.90
7654;DHT22;3869;48.406;10.774;2023-03-23T07:47:12;13.90;99.90
7654;DHT22;3869;48.406;10.774;2023-03-23T07:49:39;14.00;99.90
7654;DHT22;3869;48.406;10.774;2023-03-23T07:52:06;14.10;99.90
7654;DHT22;3869;48.406;10.774;2023-03-23T07:54:34;14.20;99.90
7654;DHT22;3869;48.406;10.774;2023-03-23T07:57:01;14.30;99.90
7654;DHT22;3869;48.406;10.774;2023-03-23T07:59:28;14.30;99.90
7654;DHT22;3869;48.406;10.774;2023-03-23T08:01:55;14.40;99.90
7654;DHT22;3869;48.406;10.774;2023-03-23T08:04:23;14.50;99.90
7654;DHT22;3869;48.406;10.774;2023-03-23T08:06:52;14.60;99.90
7654;DHT22;3869;48.406;10.774;2023-03-23T08:09:19;14.70;99.90
7654;DHT22;3869;48.406;10.774;2023-03-23T08:11:48;14.80;99.90
7654;DHT22;3869;48.406;10.774;2023-03-23T08:14:15;14.80;99.90
7654;DHT22;3869;48.406;10.774;2023-03-23T08:16:42;14.90;99.90
7654;DHT22;3869;48.406;10.774;2023-03-23T08:19:09;14.90;99.90
7654;DHT22;3869;48.406;10.774;2023-03-23T08:21:36;15.10;99.90
7654;DHT22;3869;48.406;10.774;2023-03-23T08:24:03;15.20;99.90
7654;DHT22;3869;48.406;10.774;2023-03-23T08:26:31;15.50;99.90
7654;DHT22;3869;48.406;10.774;2023-03-23T08:28:59;15.60;99.90
7654;DHT22;3869;48.406;10.774;2023-03-23T08:31:26;15.70;99.90
7654;DHT22;3869;48.406;10.774;2023-03-23T08:33:53;15.80;99.90
7654;DHT22;3869;48.406;10.774;2023-03-23T08:36:22;15.90;99.90
7654;DHT22;3869;48.406;10.774;2023-03-23T08:38:49;15.90;99.90
7654;DHT22;3869;48.406;10.774;2023-03-23T08:41:17;16.00;99.90
7654;DHT22;3869;48.406;10.774;2023-03-23T08:43:44;15.90;99.30
7654;DHT22;3869;48.406;10.774;2023-03-23T08:46:13;15.90;99.90
7654;DHT22;3869;48.406;10.774;2023-03-23T08:48:40;16.00;99.80
7654;DHT22;3869;48.406;10.774;2023-03-23T08:51:09;16.00;99.20
7654;DHT22;3869;48.406;10.774;2023-03-23T08:53:36;15.90;99.20
7654;DHT22;3869;48.406;10.774;2023-03-23T08:56:04;15.90;99.20
7654;DHT22;3869;48.406;10.774;2023-03-23T08:58:31;15.90;99.10
7654;DHT22;3869;48.406;10.774;2023-03-23T09:00:59;15.90;99.20
7654;DHT22;3869;48.406;10.774;2023-03-23T09:03:27;15.90;99.20
7654;DHT22;3869;48.406;10.774;2023-03-23T09:05:58;15.90;99.40
7654;DHT22;3869;48.406;10.774;2023-03-23T09:08:25;15.90;99.40
7654;DHT22;3869;48.406;10.774;2023-03-23T09:10:54;16.00;99.30
7654;DHT22;3869;48.406;10.774;2023-03-23T09:13:22;16.10;99.30
7654;DHT22;3869;48.406;10.774;2023-03-23T09:15:49;16.20;99.20
7654;DHT22;3869;48.406;10.774;2023-03-23T09:18:16;16.30;99.20
7654;DHT22;3869;48.406;10.774;2023-03-23T09:20:45;16.30;99.00
7654;DHT22;3869;48.406;10.774;2023-03-23T09:23:12;16.30;98.70
7654;DHT22;3869;48.406;10.774;2023-03-23T09:25:41;16.40;99.00
7654;DHT22;3869;48.406;10.774;2023-03-23T09:28:07;16.40;99.10
7654;DHT22;3869;48.406;10.774;2023-03-23T09:30:35;16.30;98.90
7654;DHT22;3869;48.406;10.774;2023-03-23T09:33:03;16.30;98.90
7654;DHT22;3869;48.406;10.774;2023-03-23T09:35:32;16.30;98.70
7654;DHT22;3869;48.406;10.774;2023-03-23T09:38:02;16.30;98.90
7654;DHT22;3869;48.406;10.774;2023-03-23T09:40:33;16.30;98.90
7654;DHT22;3869;48.406;10.774;2023-03-23T09:43:35;16.40;98.80
7654;DHT22;3869;48.406;10.774;2023-03-23T09:46:27;16.40;98.50
7654;DHT22;3869;48.406;10.774;2023-03-23T09:48:59;16.40;98.30
7654;DHT22;3869;48.406;10.774;2023-03-23T09:51:36;16.40;98.60
7654;DHT22;3869;48.406;10.774;2023-03-23T09:54:12;16.40;98.70
7654;DHT22;3869;48.406;10.774;2023-03-23T09:56:40;16.40;98.60
7654;DHT22;3869;48.406;10.774;2023-03-23T09:59:15;16.40;98.90
7654;DHT22;3869;48.406;10.774;2023-03-23T10:01:46;16.50;98.90
7654;DHT22;3869;48.406;10.774;2023-03-23T10:04:26;16.60;99.10
7654;DHT22;3869;48.406;10.774;2023-03-23T10:06:58;16.70;99.10
7654;DHT22;3869;48.406;10.774;2023-03-23T10:09:28;16.90;98.90
7654;DHT22;3869;48.406;10.774;2023-03-23T10:12:04;17.10;98.60
7654;DHT22;3869;48.406;10.774;2023-03-23T10:14:52;17.20;99.00
7654;DHT22;3869;48.406;10.774;2023-03-23T10:17:27;17.40;98.80
7654;DHT22;3869;48.406;10.774;2023-03-23T10:20:05;17.40;98.20
7654;DHT22;3869;48.406;10.774;2023-03-23T10:22:40;17.40;98.20
7654;DHT22;3869;48.406;10.774;2023-03-23T10:25:16;17.40;98.10
7654;DHT22;3869;48.406;10.774;2023-03-23T10:27:49;17.50;98.10
7654;DHT22;3869;48.406;10.774;2023-03-23T10:30:20;17.50;98.30
7654;DHT22;3869;48.406;10.774;2023-03-23T10:32:52;17.50;98.00
7654;DHT22;3869;48.406;10.774;2023-03-23T10:35:24;17.40;98.00
7654;DHT22;3869;48.406;10.774;2023-03-23T10:37:56;17.40;97.80
7654;DHT22;3869;48.406;10.774;2023-03-23T10:40:28;17.40;98.10
7654;DHT22;3869;48.406;10.774;2023-03-23T10:42:57;17.40;98.10
7654;DHT22;3869;48.406;10.774;2023-03-23T10:45:27;17.50;97.70
7654;DHT22;3869;48.406;10.774;2023-03-23T10:48:04;17.50;97.90
7654;DHT22;3869;48.406;10.774;2023-03-23T10:50:35;17.60;97.70
7654;DHT22;3869;48.406;10.774;2023-03-23T10:53:11;17.60;97.30
7654;DHT22;3869;48.406;10.774;2023-03-23T10:55:42;17.60;97.40
7654;DHT22;3869;48.406;10.774;2023-03-23T10:58:11;17.80;97.60
7654;DHT22;3869;48.406;10.774;2023-03-23T11:00:43;17.90;97.40
7654;DHT22;3869;48.406;10.774;2023-03-23T11:03:32;17.90;97.60
7654;DHT22;3869;48.406;10.774;2023-03-23T11:06:02;18.10;97.70
7654;DHT22;3869;48.406;10.774;2023-03-23T11:08:34;18.20;96.80
7654;DHT22;3869;48.406;10.774;2023-03-23T11:11:10;18.30;97.00
7654;DHT22;3869;48.406;10.774;2023-03-23T11:13:41;18.30;97.10
7654;DHT22;3869;48.406;10.774;2023-03-23T11:16:10;18.20;96.30
7654;DHT22;3869;48.406;10.774;2023-03-23T11:18:48;18.20;96.60
7654;DHT22;3869;48.406;10.774;2023-03-23T11:21:15;18.10;96.60
7654;DHT22;3869;48.406;10.774;2023-03-23T11:23:47;18.10;96.70
7654;DHT22;3869;48.406;10.774;2023-03-23T11:26:19;18.10;96.90
7654;DHT22;3869;48.406;10.774;2023-03-23T11:28:56;18.20;97.00
7654;DHT22;3869;48.406;10.774;2023-03-23T11:31:26;18.30;96.70
7654;DHT22;3869;48.406;10.774;2023-03-23T11:33:58;18.40;96.80
7654;DHT22;3869;48.406;10.774;2023-03-23T11:36:31;18.50;96.70
7654;DHT22;3869;48.406;10.774;2023-03-23T11:38:58;18.50;96.80
7654;DHT22;3869;48.406;10.774;2023-03-23T11:41:33;18.60;96.90
7654;DHT22;3869;48.406;10.774;2023-03-23T11:44:08;18.70;96.20
7654;DHT22;3869;48.406;10.774;2023-03-23T11:46:43;18.70;96.60
7654;DHT22;3869;48.406;10.774;2023-03-23T11:49:18;18.70;96.20
7654;DHT22;3869;48.406;10.774;2023-03-23T11:51:49;18.70;96.20
7654;DHT22;3869;48.406;10.774;2023-03-23T11:54:24;18.60;96.10
7654;DHT22;3869;48.406;10.774;2023-03-23T11:56:54;18.40;96.50
7654;DHT22;3869;48.406;10.774;2023-03-23T11:59:28;18.20;96.00
7654;DHT22;3869;48.406;10.774;2023-03-23T12:02:03;18.20;96.80
7654;DHT22;3869;48.406;10.774;2023-03-23T12:04:45;18.30;97.00
7654;DHT22;3869;48.406;10.774;2023-03-23T12:07:35;18.30;96.80
7654;DHT22;3869;48.406;10.774;2023-03-23T12:10:14;18.50;96.90
7654;DHT22;3869;48.406;10.774;2023-03-23T12:12:50;18.60;96.60
7654;DHT22;3869;48.406;10.774;2023-03-23T12:15:24;18.50;96.60
7654;DHT22;3869;48.406;10.774;2023-03-23T12:18:00;18.40;96.40
7654;DHT22;3869;48.406;10.774;2023-03-23T12:20:39;18.30;96.70
7654;DHT22;3869;48.406;10.774;2023-03-23T12:23:15;18.30;96.40
7654;DHT22;3869;48.406;10.774;2023-03-23T12:26:02;18.30;96.20
7654;DHT22;3869;48.406;10.774;2023-03-23T12:28:46;18.20;96.50
7654;DHT22;3869;48.406;10.774;2023-03-23T12:31:21;18.20;96.50
7654;DHT22;3869;48.406;10.774;2023-03-23T12:33:55;18.10;96.80
7654;DHT22;3869;48.406;10.774;2023-03-23T12:36:37;18.00;96.90
7654;DHT22;3869;48.406;10.774;2023-03-23T12:39:34;17.90;96.70
7654;DHT22;3869;48.406;10.774;2023-03-23T12:42:10;17.90;96.90
7654;DHT22;3869;48.406;10.774;2023-03-23T12:44:45;17.90;97.40
7654;DHT22;3869;48.406;10.774;2023-03-23T12:47:25;17.90;97.40
7654;DHT22;3869;48.406;10.774;2023-03-23T12:49:58;17.90;97.40
7654;DHT22;3869;48.406;10.774;2023-03-23T12:52:30;17.90;98.30
7654;DHT22;3869;48.406;10.774;2023-03-23T12:55:02;18.00;98.10
7654;DHT22;3869;48.406;10.774;2023-03-23T12:57:34;18.10;98.00
7654;DHT22;3869;48.406;10.774;2023-03-23T13:00:07;17.90;97.60
7654;DHT22;3869;48.406;10.774;2023-03-23T13:02:42;18.00;97.70
7654;DHT22;3869;48.406;10.774;2023-03-23T13:05:25;18.10;97.60
7654;DHT22;3869;48.406;10.774;2023-03-23T13:07:55;18.30;97.60
7654;DHT22;3869;48.406;10.774;2023-03-23T13:10:24;18.30;97.60
7654;DHT22;3869;48.406;10.774;2023-03-23T13:12:53;18.30;97.40
7654;DHT22;3869;48.406;10.774;2023-03-23T13:15:30;18.40;97.30
7654;DHT22;3869;48.406;10.774;2023-03-23T13:18:04;18.40;97.30
7654;DHT22;3869;48.406;10.774;2023-03-23T13:20:47;18.40;96.70
7654;DHT22;3869;48.406;10.774;2023-03-23T13:23:19;18.40;97.00
7654;DHT22;3869;48.406;10.774;2023-03-23T13:25:51;18.40;96.70
7654;DHT22;3869;48.406;10.774;2023-03-23T13:28:20;18.60;97.30
7654;DHT22;3869;48.406;10.774;2023-03-23T13:31:03;18.70;97.10
7654;DHT22;3869;48.406;10.774;2023-03-23T13:33:33;18.80;96.90
7654;DHT22;3869;48.406;10.774;2023-03-23T13:36:08;18.90;96.80
7654;DHT22;3869;48.406;10.774;2023-03-23T13:38:36;18.90;96.70
7654;DHT22;3869;48.406;10.774;2023-03-23T13:41:10;18.90;96.60
7654;DHT22;3869;48.406;10.774;2023-03-23T13:43:40;19.00;96.90
7654;DHT22;3869;48.406;10.774;2023-03-23T13:46:22;19.00;96.70
7654;DHT22;3869;48.406;10.774;2023-03-23T13:49:01;19.00;96.90
7654;DHT22;3869;48.406;10.774;2023-03-23T13:51:35;19.10;96.60
7654;DHT22;3869;48.406;10.774;2023-03-23T13:54:14;18.90;96.70
7654;DHT22;3869;48.406;10.774;2023-03-23T13:56:53;18.90;97.00
7654;DHT22;3869;48.406;10.774;2023-03-23T13:59:33;18.80;97.30
7654;DHT22;3869;48.406;10.774;2023-03-23T14:02:31;18.80;97.00
7654;DHT22;3869;48.406;10.774;2023-03-23T14:05:09;18.70;96.90
7654;DHT22;3869;48.406;10.774;2023-03-23T14:07:55;18.70;97.10
7654;DHT22;3869;48.406;10.774;2023-03-23T14:10:31;18.80;97.50
7654;DHT22;3869;48.406;10.774;2023-03-23T14:13:00;18.60;97.20
7654;DHT22;3869;48.406;10.774;2023-03-23T14:15:29;18.50;97.70
7654;DHT22;3869;48.406;10.774;2023-03-23T14:18:02;18.40;98.50
7654;DHT22;3869;48.406;10.774;2023-03-23T14:20:32;18.30;98.70
7654;DHT22;3869;48.406;10.774;2023-03-23T14:23:00;18.20;98.90
7654;DHT22;3869;48.406;10.774;2023-03-23T14:25:29;18.10;99.50
7654;DHT22;3869;48.406;10.774;2023-03-23T14:27:57;18.10;99.60
7654;DHT22;3869;48.406;10.774;2023-03-23T14:30:27;18.10;99.50
7654;DHT22;3869;48.406;10.774;2023-03-23T14:33:04;18.00;99.30
7654;DHT22;3869;48.406;10.774;2023-03-23T14:35:34;17.90;99.40
7654;DHT22;3869;48.406;10.774;2023-03-23T14:38:02;17.90;99.50
7654;DHT22;3869;48.406;10.774;2023-03-23T14:40:30;17.90;99.30
7654;DHT22;3869;48.406;10.774;2023-03-23T14:42:57;17.90;99.20
7654;DHT22;3869;48.406;10.774;2023-03-23T14:45:26;18.00;99.40
7654;DHT22;3869;48.406;10.774;2023-03-23T14:47:55;18.00;99.30
7654;DHT22;3869;48.406;10.774;2023-03-23T14:50:27;18.00;99.10
7654;DHT22;3869;48.406;10.774;2023-03-23T14:52:58;18.00;99.00
7654;DHT22;3869;48.406;10.774;2023-03-23T14:55:26;18.00;98.90
7654;DHT22;3869;48.406;10.774;2023-03-23T14:58:05;18.10;99.20
7654;DHT22;3869;48.406;10.774;2023-03-23T15:00:35;18.10;99.00
7654;DHT22;3869;48.406;10.774;2023-03-23T15:03:05;18.00;98.90
7654;DHT22;3869;48.406;10.774;2023-03-23T15:05:36;18.00;98.60
7654;DHT22;3869;48.406;10.774;2023-03-23T15:08:07;17.90;99.00
7654;DHT22;3869;48.406;10.774;2023-03-23T15:10:37;17.70;99.00
7654;DHT22;3869;48.406;10.774;2023-03-23T15:13:04;17.70;99.00
7654;DHT22;3869;48.406;10.774;2023-03-23T15:15:32;17.70;99.20
7654;DHT22;3869;48.406;10.774;2023-03-23T15:18:01;17.60;98.80
7654;DHT22;3869;48.406;10.774;2023-03-23T15:20:30;17.50;98.70
7654;DHT22;3869;48.406;10.774;2023-03-23T15:23:05;17.50;98.60
7654;DHT22;3869;48.406;10.774;2023-03-23T15:25:34;17.40;98.40
7654;DHT22;3869;48.406;10.774;2023-03-23T15:28:14;17.40;98.90
7654;DHT22;3869;48.406;10.774;2023-03-23T15:30:47;17.20;98.60
7654;DHT22;3869;48.406;10.774;2023-03-23T15:33:14;17.00;99.00
7654;DHT22;3869;48.406;10.774;2023-03-23T15:35:47;17.00;99.10
7654;DHT22;3869;48.406;10.774;2023-03-23T15:38:21;16.90;98.90
7654;DHT22;3869;48.406;10.774;2023-03-23T15:40:50;16.80;98.80
7654;DHT22;3869;48.406;10.774;2023-03-23T15:43:19;16.70;98.90
7654;DHT22;3869;48.406;10.774;2023-03-23T15:45:58;16.60;98.70
7654;DHT22;3869;48.406;10.774;2023-03-23T15:48:29;16.50;98.70
7654;DHT22;3869;48.406;10.774;2023-03-23T15:50:57;16.50;99.00
7654;DHT22;3869;48.406;10.774;2023-03-23T15:53:30;16.40;99.10
7654;DHT22;3869;48.406;10.774;2023-03-23T15:56:02;16.40;99.10
7654;DHT22;3869;48.406;10.774;2023-03-23T15:58:31;16.40;99.20
7654;DHT22;3869;48.406;10.774;2023-03-23T16:01:03;16.30;99.20
7654;DHT22;3869;48.406;10.774;2023-03-23T16:03:38;16.30;99.40
7654;DHT22;3869;48.406;10.774;2023-03-23T16:06:09;16.30;99.40
7654;DHT22;3869;48.406;10.774;2023-03-23T16:08:50;16.30;99.30
7654;DHT22;3869;48.406;10.774;2023-03-23T16:11:21;16.30;99.40
7654;DHT22;3869;48.406;10.774;2023-03-23T16:13:49;16.30;99.40